Time;durP1;ratioP1;P1;durP2;ratioP2;P2;SDS_P1;SDS_P2;PMS_P1;PMS_P2;Temp;Humidity;BMP_temperature;BMP_pressure;BME280_temperature;BME280_humidity;BME280_pressure;Samples;Min_cycle;Max_cycle;Signal;HPM_P1;HPM_P2
2023/01/06 00:01:10;;;;;;;;;;;10.60;99.90;;;;;;5115000;28;20281;-42
2023/01/06 00:03:35;;;;;;;;;;;10.60;99.90;;;;;;5114056;28;19907;-41
2023/01/06 00:06:02;;;;;;;;;;;10.60;99.90;;;;;;5108834;28;19964;-45
2023/01/06 00:08:27;;;;;;;;;;;10.60;99.90;;;;;;5114772;28;19915;-41
2023/01/06 00:10:53;;;;;;;;;;;10.70;99.90;;;;;;5114029;28;19908;-42
2023/01/06 00:13:19;;;;;;;;;;;10.60;99.90;;;;;;5113721;28;19908;-43
2023/01/06 00:15:44;;;;;;;;;;;10.60;99.90;;;;;;5113309;28;20181;-42
2023/01/06 00:18:10;;;;;;;;;;;10.60;99.90;;;;;;5112409;28;19912;-42
2023/01/06 00:20:35;;;;;;;;;;;10.70;99.90;;;;;;5111737;28;19908;-42
2023/01/06 00:23:00;;;;;;;;;;;10.70;99.90;;;;;;5113504;28;20267;-42
2023/01/06 00:25:26;;;;;;;;;;;10.70;99.90;;;;;;5114606;28;19916;-43
2023/01/06 00:27:51;;;;;;;;;;;10.60;99.90;;;;;;5114345;28;20020;-41
2023/01/06 00:30:17;;;;;;;;;;;10.70;99.90;;;;;;5113576;28;19912;-41
2023/01/06 00:32:42;;;;;;;;;;;10.70;99.90;;;;;;5114053;28;19920;-43
2023/01/06 00:35:08;;;;;;;;;;;10.70;99.90;;;;;;5114343;28;19914;-42
2023/01/06 00:37:33;;;;;;;;;;;10.70;99.90;;;;;;5113708;28;19908;-42
2023/01/06 00:39:59;;;;;;;;;;;10.70;99.90;;;;;;5114294;28;20312;-45
2023/01/06 00:42:24;;;;;;;;;;;10.70;99.90;;;;;;5113488;28;19908;-44
2023/01/06 00:44:50;;;;;;;;;;;10.70;99.90;;;;;;5112502;28;20423;-42
2023/01/06 00:47:16;;;;;;;;;;;10.70;99.90;;;;;;5114031;28;20350;-42
2023/01/06 00:49:41;;;;;;;;;;;10.70;99.90;;;;;;5114028;28;20370;-42
2023/01/06 00:52:07;;;;;;;;;;;10.70;99.90;;;;;;5112842;28;19939;-43
2023/01/06 00:54:32;;;;;;;;;;;10.80;99.90;;;;;;5133712;27;19991;-42
2023/01/06 00:56:58;;;;;;;;;;;10.80;99.90;;;;;;5134319;27;19912;-43
2023/01/06 00:59:24;;;;;;;;;;;10.80;99.90;;;;;;5133549;27;19935;-42
2023/01/06 01:01:51;;;;;;;;;;;10.80;99.90;;;;;;5134320;27;19912;-42
2023/01/06 01:04:17;;;;;;;;;;;10.80;99.90;;;;;;5115856;27;19911;-42
2023/01/06 01:06:43;;;;;;;;;;;10.90;99.90;;;;;;5112993;28;19953;-44
2023/01/06 01:09:11;;;;;;;;;;;10.90;99.90;;;;;;5113508;28;19916;-41
2023/01/06 01:14:20;;;;;;;;;;;10.90;99.90;;;;;;5132565;27;19966;-42
2023/01/06 01:16:46;;;;;;;;;;;10.90;99.90;;;;;;5134228;27;19955;-43
2023/01/06 01:19:12;;;;;;;;;;;10.90;99.90;;;;;;5133310;27;19914;-41
2023/01/06 01:21:37;;;;;;;;;;;10.90;99.90;;;;;;5134083;27;19959;-43
2023/01/06 01:24:03;;;;;;;;;;;10.90;99.90;;;;;;5133925;27;19926;-43
2023/01/06 01:26:28;;;;;;;;;;;10.80;99.90;;;;;;5132434;27;19984;-41
2023/01/06 01:28:54;;;;;;;;;;;10.90;99.90;;;;;;5133774;27;19920;-41
2023/01/06 01:31:19;;;;;;;;;;;10.80;99.90;;;;;;5119113;27;19981;-43
2023/01/06 01:33:45;;;;;;;;;;;10.80;99.90;;;;;;5120656;27;19911;-43
2023/01/06 01:36:12;;;;;;;;;;;10.80;99.90;;;;;;5133792;27;19914;-42
2023/01/06 01:38:37;;;;;;;;;;;10.80;99.90;;;;;;5134003;27;19914;-43
2023/01/06 01:41:03;;;;;;;;;;;10.80;99.90;;;;;;5132726;27;19924;-42
2023/01/06 01:43:44;;;;;;;;;;;10.80;99.90;;;;;;5133712;27;19914;-41
2023/01/06 01:46:11;;;;;;;;;;;10.80;99.90;;;;;;5133661;27;20353;-41
2023/01/06 01:48:37;;;;;;;;;;;10.70;99.90;;;;;;5133166;28;19915;-42
2023/01/06 01:51:05;;;;;;;;;;;10.80;99.90;;;;;;5132129;28;19934;-42
2023/01/06 01:53:33;;;;;;;;;;;10.80;99.90;;;;;;5133343;28;20328;-42
2023/01/06 01:56:01;;;;;;;;;;;10.70;99.90;;;;;;5132820;28;19907;-43
2023/01/06 01:58:29;;;;;;;;;;;10.80;99.90;;;;;;5133533;28;19911;-43
2023/01/06 02:00:55;;;;;;;;;;;10.80;99.90;;;;;;5129625;28;19915;-41
2023/01/06 02:03:21;;;;;;;;;;;10.80;99.90;;;;;;5122876;28;19981;-42
2023/01/06 02:05:49;;;;;;;;;;;10.80;99.90;;;;;;5113059;28;20355;-43
2023/01/06 02:08:38;;;;;;;;;;;10.80;99.90;;;;;;5112062;28;19916;-43
2023/01/06 02:11:04;;;;;;;;;;;10.70;99.90;;;;;;5083777;28;19919;-42
2023/01/06 02:13:31;;;;;;;;;;;10.80;99.90;;;;;;5112894;28;19912;-43
2023/01/06 02:16:07;;;;;;;;;;;10.80;99.90;;;;;;5112194;28;19908;-41
2023/01/06 02:18:39;;;;;;;;;;;10.80;99.90;;;;;;5113073;28;19915;-41
2023/01/06 02:21:08;;;;;;;;;;;10.80;99.90;;;;;;5131619;28;19915;-44
2023/01/06 02:23:33;;;;;;;;;;;10.70;99.90;;;;;;5132626;28;19915;-43
2023/01/06 02:26:09;;;;;;;;;;;10.80;99.90;;;;;;5133395;28;19911;-42
2023/01/06 02:28:53;;;;;;;;;;;10.80;99.90;;;;;;5133647;28;19965;-42
2023/01/06 02:31:18;;;;;;;;;;;10.70;99.90;;;;;;5132271;28;19958;-42
2023/01/06 02:33:47;;;;;;;;;;;10.80;99.90;;;;;;5133255;28;19948;-43
2023/01/06 02:36:30;;;;;;;;;;;10.70;99.90;;;;;;5133260;27;19939;-43
2023/01/06 02:39:13;;;;;;;;;;;10.80;99.90;;;;;;5136870;27;19947;-42
2023/01/06 02:41:42;;;;;;;;;;;10.80;99.90;;;;;;5134083;27;19929;-42
2023/01/06 02:44:22;;;;;;;;;;;10.80;99.90;;;;;;5115586;28;20385;-42
2023/01/06 02:46:55;;;;;;;;;;;10.80;99.90;;;;;;5116443;28;19995;-43
2023/01/06 02:49:26;;;;;;;;;;;10.70;99.90;;;;;;5136356;27;19923;-43
2023/01/06 02:52:11;;;;;;;;;;;10.80;99.90;;;;;;5136118;27;19911;-41
2023/01/06 02:54:47;;;;;;;;;;;10.70;99.90;;;;;;5136940;27;20348;-42
2023/01/06 02:57:27;;;;;;;;;;;10.70;99.90;;;;;;5136492;27;19908;-42
2023/01/06 02:59:58;;;;;;;;;;;10.70;99.90;;;;;;5136685;27;20283;-42
2023/01/06 03:02:24;;;;;;;;;;;10.70;99.90;;;;;;5136720;27;19994;-41
2023/01/06 03:04:50;;;;;;;;;;;10.70;99.90;;;;;;5135853;27;20401;-43
2023/01/06 03:07:17;;;;;;;;;;;10.70;99.90;;;;;;5136102;27;19907;-42
2023/01/06 03:09:43;;;;;;;;;;;10.80;99.90;;;;;;5136599;27;20164;-41
2023/01/06 03:12:32;;;;;;;;;;;10.80;99.90;;;;;;5136009;27;20146;-41
2023/01/06 03:14:57;;;;;;;;;;;10.80;99.90;;;;;;5124056;27;19976;-45
2023/01/06 03:17:24;;;;;;;;;;;10.70;99.90;;;;;;5131617;27;20354;-42
2023/01/06 03:19:50;;;;;;;;;;;10.70;99.90;;;;;;5135661;27;19907;-41
2023/01/06 03:22:16;;;;;;;;;;;10.70;99.90;;;;;;5136239;27;19913;-42
2023/01/06 03:24:42;;;;;;;;;;;10.80;99.90;;;;;;5136016;27;19908;-42
2023/01/06 03:27:08;;;;;;;;;;;10.80;99.90;;;;;;5135454;27;19990;-42
2023/01/06 03:29:33;;;;;;;;;;;10.80;99.90;;;;;;5136075;27;20002;-42
2023/01/06 03:32:01;;;;;;;;;;;10.80;99.90;;;;;;5136109;27;19911;-41
2023/01/06 03:34:29;;;;;;;;;;;10.70;99.90;;;;;;5134266;27;20266;-41
2023/01/06 03:37:04;;;;;;;;;;;10.80;99.90;;;;;;5135841;27;19915;-44
2023/01/06 03:39:30;;;;;;;;;;;10.80;99.90;;;;;;5136205;27;19908;-40
2023/01/06 03:44:45;;;;;;;;;;;10.70;99.90;;;;;;5135560;27;19990;-44
2023/01/06 03:47:13;;;;;;;;;;;10.70;99.90;;;;;;5135047;27;19911;-41
2023/01/06 03:49:48;;;;;;;;;;;10.70;99.90;;;;;;5135428;27;19922;-42
2023/01/06 03:52:28;;;;;;;;;;;10.70;99.90;;;;;;5135561;27;20354;-41
2023/01/06 03:54:59;;;;;;;;;;;10.70;99.90;;;;;;5132481;27;19970;-41
2023/01/06 03:57:40;;;;;;;;;;;10.70;99.90;;;;;;5131205;27;20066;-43
2023/01/06 04:00:06;;;;;;;;;;;10.70;99.90;;;;;;5135586;27;19914;-44
2023/01/06 04:02:32;;;;;;;;;;;10.70;99.90;;;;;;5134788;27;19908;-43
2023/01/06 04:05:04;;;;;;;;;;;10.60;99.90;;;;;;5135187;27;20053;-43
2023/01/06 04:07:29;;;;;;;;;;;10.60;99.90;;;;;;5135622;27;19956;-41
2023/01/06 04:09:54;;;;;;;;;;;10.70;99.90;;;;;;5134669;27;20327;-43
2023/01/06 04:12:38;;;;;;;;;;;10.60;99.90;;;;;;5135300;27;19911;-42
2023/01/06 04:15:14;;;;;;;;;;;10.60;99.90;;;;;;5129913;27;19927;-43
2023/01/06 04:17:40;;;;;;;;;;;10.60;99.90;;;;;;5131197;27;19908;-41
2023/01/06 04:20:06;;;;;;;;;;;10.70;99.90;;;;;;5114538;28;20243;-42
2023/01/06 04:22:32;;;;;;;;;;;10.60;99.90;;;;;;5113968;28;19908;-41
2023/01/06 04:24:57;;;;;;;;;;;10.60;99.90;;;;;;5130052;27;20309;-41
2023/01/06 04:27:23;;;;;;;;;;;10.60;99.90;;;;;;5135050;27;19907;-42
2023/01/06 04:29:48;;;;;;;;;;;10.60;99.90;;;;;;5134301;27;20377;-42
2023/01/06 04:32:13;;;;;;;;;;;10.60;99.90;;;;;;5134870;27;19998;-44
2023/01/06 04:34:39;;;;;;;;;;;10.70;99.90;;;;;;5134398;27;19911;-43
2023/01/06 04:37:04;;;;;;;;;;;10.60;99.90;;;;;;5134253;27;19964;-42
2023/01/06 04:39:30;;;;;;;;;;;10.70;99.90;;;;;;5134862;27;19908;-42
2023/01/06 04:41:55;;;;;;;;;;;10.60;99.90;;;;;;5134773;27;20321;-42
2023/01/06 04:44:21;;;;;;;;;;;10.60;99.90;;;;;;5125192;27;19958;-42
2023/01/06 04:46:46;;;;;;;;;;;10.60;99.90;;;;;;5134632;27;20271;-42
2023/01/06 04:49:12;;;;;;;;;;;10.70;99.90;;;;;;5134537;27;19919;-43
2023/01/06 04:51:37;;;;;;;;;;;10.70;99.90;;;;;;5133475;27;19912;-42
2023/01/06 04:54:03;;;;;;;;;;;10.70;99.90;;;;;;5134316;27;20332;-43
2023/01/06 04:56:29;;;;;;;;;;;10.70;99.90;;;;;;5134477;27;19907;-43
2023/01/06 04:58:55;;;;;;;;;;;10.70;99.90;;;;;;5133766;27;20001;-41
2023/01/06 05:01:20;;;;;;;;;;;10.70;99.90;;;;;;5130774;27;20002;-42
2023/01/06 05:03:46;;;;;;;;;;;10.70;99.90;;;;;;5132760;27;20048;-42
2023/01/06 05:06:12;;;;;;;;;;;10.70;99.90;;;;;;5133415;27;19915;-42
2023/01/06 05:08:38;;;;;;;;;;;10.70;99.90;;;;;;5134227;27;19922;-43
2023/01/06 05:11:05;;;;;;;;;;;10.70;99.90;;;;;;5133470;27;20345;-43
2023/01/06 05:13:31;;;;;;;;;;;10.70;99.90;;;;;;5133692;27;19911;-42
2023/01/06 05:15:56;;;;;;;;;;;10.70;99.90;;;;;;5134057;27;20254;-43
2023/01/06 05:18:22;;;;;;;;;;;10.70;99.90;;;;;;5133466;27;19915;-42
2023/01/06 05:20:49;;;;;;;;;;;10.70;99.90;;;;;;5134173;27;19907;-42
2023/01/06 05:23:15;;;;;;;;;;;10.70;99.90;;;;;;5122055;27;20439;-41
2023/01/06 05:25:40;;;;;;;;;;;10.70;99.90;;;;;;5132759;27;19937;-42
2023/01/06 05:28:05;;;;;;;;;;;10.70;99.90;;;;;;5133822;27;20002;-43
2023/01/06 05:30:31;;;;;;;;;;;10.70;99.90;;;;;;5133697;27;19914;-44
2023/01/06 05:32:56;;;;;;;;;;;10.70;99.90;;;;;;5132650;27;19911;-43
2023/01/06 05:35:22;;;;;;;;;;;10.70;99.90;;;;;;5133691;27;19930;-43
2023/01/06 05:37:47;;;;;;;;;;;10.70;99.90;;;;;;5133715;27;19908;-43
2023/01/06 05:40:13;;;;;;;;;;;10.70;99.90;;;;;;5132853;27;20353;-42
2023/01/06 05:42:38;;;;;;;;;;;10.70;99.90;;;;;;5133360;28;20049;-43
2023/01/06 05:45:04;;;;;;;;;;;10.70;99.90;;;;;;5133379;27;20361;-42
2023/01/06 05:47:29;;;;;;;;;;;10.70;99.90;;;;;;5132811;27;19907;-42
2023/01/06 05:49:55;;;;;;;;;;;10.70;99.90;;;;;;5133624;28;19919;-42
2023/01/06 05:52:20;;;;;;;;;;;10.80;99.90;;;;;;5132552;28;20365;-43
2023/01/06 05:54:46;;;;;;;;;;;10.80;99.90;;;;;;5132853;28;19918;-42
2023/01/06 05:57:11;;;;;;;;;;;10.80;99.90;;;;;;5133474;28;19908;-43
2023/01/06 05:59:37;;;;;;;;;;;10.80;99.90;;;;;;5133564;28;19914;-43
2023/01/06 06:02:02;;;;;;;;;;;10.80;99.90;;;;;;5130192;28;19914;-41
2023/01/06 06:04:28;;;;;;;;;;;10.70;99.90;;;;;;5129404;28;19916;-42
2023/01/06 06:06:53;;;;;;;;;;;10.80;99.90;;;;;;5133498;28;19930;-43
2023/01/06 06:09:18;;;;;;;;;;;10.80;99.90;;;;;;5132595;28;19916;-43
2023/01/06 06:11:44;;;;;;;;;;;10.80;99.90;;;;;;5135482;27;19907;-42
2023/01/06 06:14:09;;;;;;;;;;;10.80;99.90;;;;;;5136863;27;19908;-43
2023/01/06 06:16:35;;;;;;;;;;;10.80;99.90;;;;;;5136886;27;19964;-43
2023/01/06 06:19:00;;;;;;;;;;;10.80;99.90;;;;;;5137609;27;19908;-41
2023/01/06 06:21:27;;;;;;;;;;;10.80;99.90;;;;;;5136545;27;19907;-43
2023/01/06 06:23:53;;;;;;;;;;;10.80;99.90;;;;;;5132722;27;20385;-44
2023/01/06 06:26:19;;;;;;;;;;;10.80;99.90;;;;;;5137493;27;19911;-43
2023/01/06 06:28:45;;;;;;;;;;;10.80;99.90;;;;;;5136693;27;20173;-43
2023/01/06 06:31:12;;;;;;;;;;;10.80;99.90;;;;;;5137385;27;19915;-43
2023/01/06 06:33:38;;;;;;;;;;;10.80;99.90;;;;;;5136804;27;19995;-44
2023/01/06 06:36:04;;;;;;;;;;;10.80;99.90;;;;;;5136519;27;19969;-42
2023/01/06 06:38:30;;;;;;;;;;;10.70;99.90;;;;;;5136984;27;20429;-43
2023/01/06 06:40:55;;;;;;;;;;;10.70;99.90;;;;;;5137037;27;19950;-44
2023/01/06 06:43:21;;;;;;;;;;;10.60;99.90;;;;;;5135942;27;19912;-44
2023/01/06 06:45:47;;;;;;;;;;;10.60;99.90;;;;;;5137030;27;20006;-46
2023/01/06 06:48:12;;;;;;;;;;;10.60;99.90;;;;;;5136679;27;19911;-45
2023/01/06 06:50:38;;;;;;;;;;;10.50;99.90;;;;;;5134450;27;20000;-44
2023/01/06 06:53:03;;;;;;;;;;;10.50;99.90;;;;;;5136630;27;20437;-45
2023/01/06 06:55:29;;;;;;;;;;;10.50;99.90;;;;;;5136726;27;19914;-45
2023/01/06 06:57:54;;;;;;;;;;;10.40;99.90;;;;;;5135939;27;19925;-44
2023/01/06 07:00:20;;;;;;;;;;;10.40;99.90;;;;;;5134382;27;20019;-45
2023/01/06 07:02:49;;;;;;;;;;;10.40;99.90;;;;;;5134951;27;20419;-45
2023/01/06 07:05:15;;;;;;;;;;;10.40;99.90;;;;;;5135808;27;19907;-45
2023/01/06 07:07:41;;;;;;;;;;;10.30;99.90;;;;;;5136718;27;20312;-45
2023/01/06 07:10:06;;;;;;;;;;;10.30;99.90;;;;;;5136274;27;19915;-44
2023/01/06 07:12:32;;;;;;;;;;;10.30;99.90;;;;;;5129389;27;19994;-45
2023/01/06 07:14:57;;;;;;;;;;;10.20;99.90;;;;;;5135522;27;20353;-46
2023/01/06 07:17:28;;;;;;;;;;;10.20;99.90;;;;;;5136456;27;19907;-45
2023/01/06 07:19:54;;;;;;;;;;;10.20;99.90;;;;;;5135761;27;19907;-45
2023/01/06 07:22:19;;;;;;;;;;;10.20;99.90;;;;;;5133693;27;20626;-44
2023/01/06 07:24:45;;;;;;;;;;;10.20;99.90;;;;;;5133367;27;19979;-45
2023/01/06 07:27:11;;;;;;;;;;;10.30;99.90;;;;;;5134291;27;19915;-43
2023/01/06 07:29:36;;;;;;;;;;;10.20;99.90;;;;;;5134463;27;20365;-44
2023/01/06 07:32:02;;;;;;;;;;;10.20;99.90;;;;;;5132685;27;19916;-42
2023/01/06 07:34:27;;;;;;;;;;;10.20;99.90;;;;;;5134063;27;19994;-42
2023/01/06 07:36:52;;;;;;;;;;;10.20;99.90;;;;;;5134455;27;20014;-43
2023/01/06 07:39:18;;;;;;;;;;;10.20;99.90;;;;;;5125014;27;20317;-45
2023/01/06 07:41:43;;;;;;;;;;;10.20;99.90;;;;;;5129352;27;19918;-42
2023/01/06 07:44:09;;;;;;;;;;;10.20;99.90;;;;;;5134085;27;19994;-43
2023/01/06 07:46:34;;;;;;;;;;;10.20;99.90;;;;;;5125355;27;19916;-44
2023/01/06 07:49:00;;;;;;;;;;;10.30;99.90;;;;;;5127380;27;20588;-42
2023/01/06 07:51:25;;;;;;;;;;;10.30;99.90;;;;;;5124136;27;20034;-42
2023/01/06 07:53:51;;;;;;;;;;;10.30;99.90;;;;;;5127043;27;19934;-41
2023/01/06 07:56:16;;;;;;;;;;;10.30;99.90;;;;;;5130130;27;20267;-43
2023/01/06 07:58:42;;;;;;;;;;;10.30;99.90;;;;;;5127968;27;19911;-44
2023/01/06 08:01:08;;;;;;;;;;;10.30;99.90;;;;;;5132523;27;20379;-43
2023/01/06 08:03:33;;;;;;;;;;;10.30;99.90;;;;;;5133017;27;19907;-42
2023/01/06 08:05:58;;;;;;;;;;;10.30;99.90;;;;;;5129828;27;19915;-44
2023/01/06 08:08:24;;;;;;;;;;;10.30;99.90;;;;;;5125732;27;19926;-44
2023/01/06 08:10:49;;;;;;;;;;;10.30;99.90;;;;;;5132569;27;19907;-44
2023/01/06 08:13:15;;;;;;;;;;;10.30;99.90;;;;;;5131626;27;20316;-44
2023/01/06 08:15:40;;;;;;;;;;;10.30;99.90;;;;;;5128260;27;19967;-46
2023/01/06 08:18:06;;;;;;;;;;;10.40;99.90;;;;;;5131244;27;19942;-44
2023/01/06 08:20:35;;;;;;;;;;;10.30;99.90;;;;;;5130629;27;19911;-43
2023/01/06 08:23:00;;;;;;;;;;;10.30;99.90;;;;;;5131160;27;20259;-43
2023/01/06 08:25:26;;;;;;;;;;;10.30;99.90;;;;;;5131547;27;20358;-43
2023/01/06 08:27:51;;;;;;;;;;;10.20;99.90;;;;;;5132450;27;19960;-43
2023/01/06 08:30:20;;;;;;;;;;;10.20;99.90;;;;;;5131641;27;19916;-44
2023/01/06 08:32:47;;;;;;;;;;;10.10;99.90;;;;;;5134334;27;19915;-44
2023/01/06 08:35:12;;;;;;;;;;;10.00;99.90;;;;;;5132095;27;19947;-44
2023/01/06 08:37:38;;;;;;;;;;;9.90;99.90;;;;;;5133715;27;19947;-45
2023/01/06 08:40:03;;;;;;;;;;;9.80;99.90;;;;;;5132254;27;19945;-46
2023/01/06 08:42:29;;;;;;;;;;;9.70;99.90;;;;;;5127702;27;19911;-44
2023/01/06 08:44:54;;;;;;;;;;;9.70;99.90;;;;;;5127863;27;20073;-44
2023/01/06 08:47:20;;;;;;;;;;;9.60;99.90;;;;;;5132025;27;19918;-44
2023/01/06 08:49:45;;;;;;;;;;;9.60;99.90;;;;;;5132411;27;19923;-45
2023/01/06 08:52:11;;;;;;;;;;;9.60;99.90;;;;;;5132185;27;20345;-43
2023/01/06 08:54:36;;;;;;;;;;;9.50;99.90;;;;;;5133101;27;19920;-45
2023/01/06 08:57:02;;;;;;;;;;;9.50;99.90;;;;;;5132732;27;19914;-44
2023/01/06 08:59:27;;;;;;;;;;;9.50;99.90;;;;;;5132674;27;20374;-46
2023/01/06 09:01:53;;;;;;;;;;;9.40;99.90;;;;;;5133598;27;20361;-43
2023/01/06 09:04:18;;;;;;;;;;;9.40;99.90;;;;;;5132515;27;19914;-45
2023/01/06 09:06:46;;;;;;;;;;;9.40;99.90;;;;;;5133532;27;19911;-46
2023/01/06 09:09:11;;;;;;;;;;;9.40;99.90;;;;;;5131347;27;20335;-47
2023/01/06 09:11:40;;;;;;;;;;;9.40;99.90;;;;;;5119967;27;20350;-43
2023/01/06 09:14:06;;;;;;;;;;;9.40;99.90;;;;;;5117417;27;19922;-46
2023/01/06 09:16:31;;;;;;;;;;;9.40;99.90;;;;;;5113062;28;20423;-44
2023/01/06 09:18:57;;;;;;;;;;;9.40;99.90;;;;;;5125733;27;19911;-46
2023/01/06 09:21:22;;;;;;;;;;;9.40;99.90;;;;;;5125991;27;20281;-44
2023/01/06 09:23:48;;;;;;;;;;;9.30;99.90;;;;;;5129595;27;19915;-44
2023/01/06 09:26:14;;;;;;;;;;;9.40;99.90;;;;;;5110472;27;20039;-44
2023/01/06 09:28:40;;;;;;;;;;;9.30;99.90;;;;;;5120250;27;19923;-46
2023/01/06 09:31:06;;;;;;;;;;;9.30;99.90;;;;;;5111732;27;19920;-45
2023/01/06 09:33:32;;;;;;;;;;;9.40;99.90;;;;;;5117405;27;19908;-44
2023/01/06 09:35:57;;;;;;;;;;;9.40;99.90;;;;;;5112296;27;19963;-45
2023/01/06 09:38:23;;;;;;;;;;;9.40;99.90;;;;;;5113423;27;19911;-42
2023/01/06 09:41:07;;;;;;;;;;;9.40;99.90;;;;;;5129816;27;19907;-43
2023/01/06 09:43:33;;;;;;;;;;;9.40;99.90;;;;;;5126404;27;19918;-45
2023/01/06 09:46:00;;;;;;;;;;;9.40;99.90;;;;;;5129282;27;19911;-44
2023/01/06 09:48:31;;;;;;;;;;;9.40;99.90;;;;;;5130356;27;20078;-43
2023/01/06 09:51:00;;;;;;;;;;;9.40;99.90;;;;;;5125175;27;19994;-43
2023/01/06 09:53:32;;;;;;;;;;;9.40;99.90;;;;;;5119782;28;19931;-50
2023/01/06 09:55:59;;;;;;;;;;;9.40;99.90;;;;;;5119855;28;19965;-43
2023/01/06 09:58:39;;;;;;;;;;;9.50;99.90;;;;;;5132405;28;19914;-43
2023/01/06 10:01:10;;;;;;;;;;;9.50;99.90;;;;;;5111175;28;19951;-43
2023/01/06 10:03:35;;;;;;;;;;;9.50;99.90;;;;;;5111621;28;19920;-45
2023/01/06 10:06:01;;;;;;;;;;;9.50;99.90;;;;;;5131199;28;19912;-45
2023/01/06 10:08:29;;;;;;;;;;;9.60;99.90;;;;;;5126316;28;20255;-43
2023/01/06 10:10:54;;;;;;;;;;;9.60;99.90;;;;;;5132093;28;19965;-43
2023/01/06 10:13:26;;;;;;;;;;;9.60;99.90;;;;;;5132212;28;19969;-45
2023/01/06 10:15:57;;;;;;;;;;;9.70;99.90;;;;;;5131516;28;19912;-45
2023/01/06 10:18:29;;;;;;;;;;;9.70;99.90;;;;;;5126288;28;20436;-43
2023/01/06 10:21:09;;;;;;;;;;;9.70;99.90;;;;;;5129661;28;19908;-43
2023/01/06 10:23:47;;;;;;;;;;;9.80;99.90;;;;;;5128575;28;19911;-44
2023/01/06 10:26:15;;;;;;;;;;;9.80;99.90;;;;;;5128596;28;19911;-43
2023/01/06 10:28:41;;;;;;;;;;;9.80;99.90;;;;;;5111038;28;19939;-42
2023/01/06 10:31:10;;;;;;;;;;;9.80;99.90;;;;;;5112937;28;19911;-45
2023/01/06 10:33:39;;;;;;;;;;;9.90;99.90;;;;;;5112035;28;20290;-44
2023/01/06 10:36:10;;;;;;;;;;;9.90;99.90;;;;;;5110826;28;19934;-43
2023/01/06 10:38:46;;;;;;;;;;;10.00;99.90;;;;;;5130343;28;20015;-44
2023/01/06 10:41:18;;;;;;;;;;;10.00;99.90;;;;;;5115742;28;19929;-45
2023/01/06 10:43:43;;;;;;;;;;;10.00;99.90;;;;;;5131730;27;20354;-43
2023/01/06 10:46:09;;;;;;;;;;;10.00;99.90;;;;;;5131324;28;19908;-43
2023/01/06 10:48:34;;;;;;;;;;;10.00;99.90;;;;;;5129961;28;19919;-44
2023/01/06 10:51:15;;;;;;;;;;;10.00;99.90;;;;;;5130381;28;19911;-44
2023/01/06 10:53:40;;;;;;;;;;;10.10;99.90;;;;;;5130634;28;20055;-43
2023/01/06 10:56:06;;;;;;;;;;;10.10;99.90;;;;;;5131351;28;20349;-43
2023/01/06 10:58:46;;;;;;;;;;;10.10;99.90;;;;;;5133840;27;20251;-43
2023/01/06 11:01:21;;;;;;;;;;;10.10;99.90;;;;;;5136003;27;20018;-43
2023/01/06 11:04:02;;;;;;;;;;;10.10;99.90;;;;;;5135599;27;19925;-44
2023/01/06 11:06:29;;;;;;;;;;;10.10;99.90;;;;;;5128617;27;19911;-44
2023/01/06 11:08:54;;;;;;;;;;;10.00;99.90;;;;;;5127582;27;19924;-44
2023/01/06 11:11:21;;;;;;;;;;;10.00;99.90;;;;;;5126783;27;19912;-43
2023/01/06 11:13:54;;;;;;;;;;;10.10;99.90;;;;;;5134938;27;19930;-44
2023/01/06 11:16:24;;;;;;;;;;;10.10;99.90;;;;;;5126719;27;19911;-43
2023/01/06 11:18:54;;;;;;;;;;;10.10;99.90;;;;;;5130998;27;19908;-42
2023/01/06 11:21:20;;;;;;;;;;;10.20;99.90;;;;;;5134881;27;19949;-42
2023/01/06 11:23:46;;;;;;;;;;;10.30;99.90;;;;;;5130210;27;19950;-43
2023/01/06 11:26:19;;;;;;;;;;;10.30;99.90;;;;;;5134121;27;19915;-43
2023/01/06 11:28:46;;;;;;;;;;;10.40;99.90;;;;;;5131276;27;20270;-43
2023/01/06 11:31:19;;;;;;;;;;;10.40;99.90;;;;;;5132082;27;19918;-44
2023/01/06 11:33:49;;;;;;;;;;;10.40;99.90;;;;;;5133305;27;20353;-43
2023/01/06 11:36:15;;;;;;;;;;;10.40;99.90;;;;;;5132068;27;19918;-44
2023/01/06 11:38:46;;;;;;;;;;;10.40;99.90;;;;;;5129720;27;19911;-45
2023/01/06 11:41:12;;;;;;;;;;;10.40;99.90;;;;;;5132708;27;20275;-43
2023/01/06 11:43:42;;;;;;;;;;;10.40;99.90;;;;;;5135324;27;19915;-44
2023/01/06 11:46:08;;;;;;;;;;;10.40;99.90;;;;;;5133409;27;19926;-43
2023/01/06 11:48:47;;;;;;;;;;;10.40;99.90;;;;;;5135984;27;19915;-44
2023/01/06 11:51:13;;;;;;;;;;;10.40;99.90;;;;;;5135122;27;19946;-45
2023/01/06 11:53:39;;;;;;;;;;;10.50;99.90;;;;;;5131414;27;19943;-44
2023/01/06 11:56:06;;;;;;;;;;;10.50;99.90;;;;;;5133857;27;19921;-45
2023/01/06 11:58:37;;;;;;;;;;;10.50;99.90;;;;;;5133608;27;20040;-44
2023/01/06 12:01:26;;;;;;;;;;;10.50;99.90;;;;;;5133512;27;19907;-43
2023/01/06 12:03:53;;;;;;;;;;;10.40;99.90;;;;;;5121385;27;19918;-43
2023/01/06 12:06:26;;;;;;;;;;;10.50;99.90;;;;;;5134613;27;20249;-43
2023/01/06 12:09:02;;;;;;;;;;;10.50;99.90;;;;;;5135331;27;19915;-43
2023/01/06 12:11:34;;;;;;;;;;;10.50;99.90;;;;;;5135375;27;19907;-43
2023/01/06 12:14:00;;;;;;;;;;;10.40;99.90;;;;;;5134341;27;19911;-45
2023/01/06 12:16:37;;;;;;;;;;;10.50;99.90;;;;;;5135378;27;19972;-44
2023/01/06 12:19:13;;;;;;;;;;;10.60;99.90;;;;;;5135205;27;20399;-43
2023/01/06 12:21:40;;;;;;;;;;;10.50;99.90;;;;;;5133885;27;20399;-43
2023/01/06 12:24:08;;;;;;;;;;;10.50;99.90;;;;;;5135241;27;19917;-43
2023/01/06 12:26:35;;;;;;;;;;;10.40;99.90;;;;;;5135139;27;19908;-45
2023/01/06 12:29:01;;;;;;;;;;;10.40;99.90;;;;;;5134633;27;19911;-44
2023/01/06 12:31:34;;;;;;;;;;;10.30;99.90;;;;;;5134562;27;20141;-45
2023/01/06 12:34:18;;;;;;;;;;;10.30;99.90;;;;;;5114449;28;19986;-43
2023/01/06 12:36:49;;;;;;;;;;;10.30;99.90;;;;;;5114436;28;19914;-44
2023/01/06 12:39:15;;;;;;;;;;;10.30;99.90;;;;;;5114314;28;19950;-43
2023/01/06 12:41:48;;;;;;;;;;;10.20;99.90;;;;;;5120358;27;19947;-43
2023/01/06 12:44:16;;;;;;;;;;;10.20;99.90;;;;;;5134958;27;19960;-44
2023/01/06 12:46:47;;;;;;;;;;;10.20;99.90;;;;;;5134939;27;19907;-45
2023/01/06 12:49:21;;;;;;;;;;;10.20;99.90;;;;;;5133731;27;19912;-42
2023/01/06 12:51:50;;;;;;;;;;;10.20;99.90;;;;;;5134209;27;19958;-42
2023/01/06 12:54:28;;;;;;;;;;;10.30;99.90;;;;;;5133624;27;19919;-42
2023/01/06 12:57:03;;;;;;;;;;;10.30;99.90;;;;;;5133927;27;20275;-44
2023/01/06 12:59:36;;;;;;;;;;;10.40;99.90;;;;;;5134513;27;20362;-43
2023/01/06 13:02:13;;;;;;;;;;;10.40;99.90;;;;;;5134260;27;19908;-43
2023/01/06 13:04:51;;;;;;;;;;;10.50;99.90;;;;;;5134153;27;20002;-43
2023/01/06 13:07:39;;;;;;;;;;;10.50;99.90;;;;;;5134372;27;19911;-43
2023/01/06 13:10:23;;;;;;;;;;;10.40;99.90;;;;;;5122139;27;20255;-43
2023/01/06 13:12:51;;;;;;;;;;;10.40;99.90;;;;;;5133985;27;19955;-44
2023/01/06 13:15:23;;;;;;;;;;;10.30;99.90;;;;;;5134159;27;19915;-44
2023/01/06 13:18:00;;;;;;;;;;;10.30;99.90;;;;;;5133473;27;19907;-44
2023/01/06 13:20:35;;;;;;;;;;;10.20;99.90;;;;;;5133378;27;19943;-43
2023/01/06 13:23:04;;;;;;;;;;;10.20;99.90;;;;;;5133987;27;19911;-45
2023/01/06 13:25:29;;;;;;;;;;;10.20;99.90;;;;;;5133303;27;20283;-43
2023/01/06 13:27:55;;;;;;;;;;;10.20;99.90;;;;;;5134298;27;19912;-45
2023/01/06 13:30:39;;;;;;;;;;;10.10;99.90;;;;;;5133723;27;19953;-46
2023/01/06 13:33:07;;;;;;;;;;;10.10;99.90;;;;;;5113382;28;19911;-43
2023/01/06 13:35:54;;;;;;;;;;;10.10;99.90;;;;;;5113377;28;19983;-43
2023/01/06 13:38:58;;;;;;;;;;;10.10;99.90;;;;;;5112325;28;19908;-43
2023/01/06 13:41:25;;;;;;;;;;;10.10;99.90;;;;;;5041072;28;20356;-43
2023/01/06 13:43:52;;;;;;;;;;;10.00;99.90;;;;;;5050396;28;20222;-42
2023/01/06 13:46:19;;;;;;;;;;;10.00;99.90;;;;;;5089091;27;20273;-43
2023/01/06 13:48:47;;;;;;;;;;;10.00;99.90;;;;;;5133642;27;20369;-45
2023/01/06 13:51:14;;;;;;;;;;;10.00;99.90;;;;;;5130499;27;20165;-43
2023/01/06 13:53:41;;;;;;;;;;;10.00;99.90;;;;;;5122484;27;19942;-43
2023/01/06 13:56:13;;;;;;;;;;;10.00;99.90;;;;;;5113076;28;20366;-44
2023/01/06 13:58:38;;;;;;;;;;;10.00;99.90;;;;;;5112368;28;20158;-44
2023/01/06 14:01:09;;;;;;;;;;;10.00;99.90;;;;;;5113003;28;20479;-43
2023/01/06 14:03:35;;;;;;;;;;;9.90;99.90;;;;;;5112624;28;19919;-44
2023/01/06 14:06:01;;;;;;;;;;;9.90;99.90;;;;;;5112324;28;19929;-46
2023/01/06 14:08:29;;;;;;;;;;;9.90;99.90;;;;;;5112876;28;19930;-44
2023/01/06 14:11:24;;;;;;;;;;;9.90;99.90;;;;;;5113202;28;19944;-43
2023/01/06 14:13:51;;;;;;;;;;;9.80;99.90;;;;;;5090029;28;20431;-45
2023/01/06 14:16:17;;;;;;;;;;;9.90;99.90;;;;;;5113242;28;20010;-43
2023/01/06 14:18:44;;;;;;;;;;;9.90;99.90;;;;;;5108267;28;20010;-43
2023/01/06 14:21:09;;;;;;;;;;;9.80;99.90;;;;;;5112157;28;19931;-44
2023/01/06 14:23:35;;;;;;;;;;;9.80;99.90;;;;;;5093083;28;20367;-47
2023/01/06 14:26:01;;;;;;;;;;;9.80;99.90;;;;;;5103689;28;20291;-45
2023/01/06 14:28:28;;;;;;;;;;;9.80;99.90;;;;;;5100033;28;19915;-44
2023/01/06 14:31:12;;;;;;;;;;;9.80;99.90;;;;;;5101683;28;19909;-43